createdAt,value
2023-12-17T00:00:26.096Z,0.86
2023-12-17T00:03:16.762Z,0.82
2023-12-17T00:05:38.733Z,0.78
2023-12-17T00:08:05.138Z,0.76
2023-12-17T00:10:31.362Z,0.72
2023-12-17T00:12:57.620Z,0.67
2023-12-17T00:15:23.880Z,0.67
2023-12-17T00:17:50.204Z,0.65
2023-12-17T00:20:16.541Z,0.65
2023-12-17T00:22:42.704Z,0.74
2023-12-17T00:25:08.891Z,0.65
2023-12-17T00:27:35.124Z,0.60
2023-12-17T00:30:01.363Z,0.50
2023-12-17T00:32:27.730Z,0.43
2023-12-17T00:34:53.953Z,0.38
2023-12-17T00:37:20.125Z,0.28
2023-12-17T00:39:46.319Z,0.21
2023-12-17T00:42:12.584Z,0.17
2023-12-17T00:44:39.102Z,0.14
2023-12-17T00:47:05.298Z,0.12
2023-12-17T00:49:31.618Z,0.16
2023-12-17T00:51:57.966Z,0.30
2023-12-17T00:54:24.214Z,0.30
2023-12-17T00:56:50.447Z,0.32
2023-12-17T00:59:16.699Z,0.34
2023-12-17T01:01:43.125Z,0.34
2023-12-17T01:04:09.363Z,0.34
2023-12-17T01:06:35.642Z,0.31
2023-12-17T01:09:01.978Z,0.32
2023-12-17T01:11:28.207Z,0.31
2023-12-17T01:13:54.458Z,0.30
2023-12-17T01:16:20.653Z,0.37
2023-12-17T01:18:47.021Z,0.43
2023-12-17T01:21:13.369Z,0.45
2023-12-17T01:23:39.600Z,0.47
2023-12-17T01:26:05.795Z,0.52
2023-12-17T01:28:32.419Z,0.50
2023-12-17T01:30:58.637Z,0.45
2023-12-17T01:33:25.722Z,0.40
2023-12-17T01:35:52.004Z,0.35
2023-12-17T01:38:18.187Z,0.33
2023-12-17T01:40:44.423Z,0.29
2023-12-17T01:43:10.650Z,0.27
2023-12-17T01:45:36.912Z,0.24
2023-12-17T01:48:03.282Z,0.18
2023-12-17T01:50:29.668Z,0.11
2023-12-17T01:52:55.922Z,0.04
2023-12-17T01:55:22.414Z,-0.01
2023-12-17T01:57:48.632Z,-0.05
2023-12-17T02:00:14.888Z,-0.05
2023-12-17T02:02:41.247Z,-0.03
2023-12-17T02:05:07.486Z,-0.04
2023-12-17T02:07:33.704Z,-0.06
2023-12-17T02:09:59.926Z,-0.09
2023-12-17T02:12:26.170Z,-0.07
2023-12-17T02:14:52.389Z,-0.10
2023-12-17T02:17:18.623Z,-0.05
2023-12-17T02:19:44.891Z,-0.03
2023-12-17T02:22:11.108Z,-0.04
2023-12-17T02:24:37.287Z,-0.10
2023-12-17T02:27:03.439Z,-0.16
2023-12-17T02:29:29.662Z,-0.09
2023-12-17T02:31:55.875Z,-0.15
2023-12-17T02:34:22.190Z,-0.23
2023-12-17T02:36:48.455Z,-0.28
2023-12-17T02:39:14.708Z,-0.34
2023-12-17T02:41:41.036Z,-0.39
2023-12-17T02:44:07.276Z,-0.43
2023-12-17T02:46:34.008Z,-0.43
2023-12-17T02:49:00.343Z,-0.47
2023-12-17T02:51:26.759Z,-0.47
2023-12-17T02:53:52.971Z,-0.44
2023-12-17T02:56:19.176Z,-0.40
2023-12-17T02:58:45.364Z,-0.38
2023-12-17T03:01:11.644Z,-0.38
2023-12-17T03:03:37.915Z,-0.34
2023-12-17T03:06:04.173Z,-0.31
2023-12-17T03:08:30.424Z,-0.31
2023-12-17T03:10:56.641Z,-0.28
2023-12-17T03:13:22.862Z,-0.29
2023-12-17T03:15:49.114Z,-0.28
2023-12-17T03:18:15.521Z,-0.27
2023-12-17T03:20:41.842Z,-0.26
2023-12-17T03:23:08.110Z,-0.28
2023-12-17T03:25:34.310Z,-0.28
2023-12-17T03:28:00.478Z,-0.27
2023-12-17T03:30:26.852Z,-0.32
2023-12-17T03:32:53.346Z,-0.32
2023-12-17T03:35:19.649Z,-0.35
2023-12-17T03:37:45.880Z,-0.34
2023-12-17T03:40:12.090Z,-0.35
2023-12-17T03:42:38.286Z,-0.37
2023-12-17T03:45:04.502Z,-0.36
2023-12-17T03:47:30.712Z,-0.39
2023-12-17T03:49:56.971Z,-0.38
2023-12-17T03:52:23.242Z,-0.35
2023-12-17T03:54:49.517Z,-0.35
2023-12-17T03:57:15.845Z,-0.39
2023-12-17T03:59:42.183Z,-0.42
2023-12-17T04:02:08.411Z,-0.38
2023-12-17T04:04:34.590Z,-0.43
2023-12-17T04:07:00.814Z,-0.47
2023-12-17T04:09:27.055Z,-0.51
2023-12-17T04:11:53.311Z,-0.52
2023-12-17T04:14:19.556Z,-0.55
2023-12-17T04:16:45.818Z,-0.55
2023-12-17T04:19:12.103Z,-0.56
2023-12-17T04:21:38.438Z,-0.56
2023-12-17T04:24:04.751Z,-0.53
2023-12-17T04:26:30.948Z,-0.51
2023-12-17T04:28:57.158Z,-0.52
2023-12-17T04:31:23.442Z,-0.48
2023-12-17T04:33:50.055Z,-0.51
2023-12-17T04:36:16.576Z,-0.53
2023-12-17T04:38:42.930Z,-0.51
2023-12-17T04:41:09.310Z,-0.53
2023-12-17T04:43:35.552Z,-0.53
2023-12-17T04:46:01.731Z,-0.52
2023-12-17T04:48:28.146Z,-0.53
2023-12-17T04:50:54.471Z,-0.49
2023-12-17T04:53:20.688Z,-0.51
2023-12-17T04:55:46.974Z,-0.49
2023-12-17T04:58:13.447Z,-0.47
2023-12-17T05:00:41.115Z,-0.45
2023-12-17T05:03:10.055Z,-0.45
2023-12-17T05:05:36.921Z,-0.48
2023-12-17T05:08:03.407Z,-0.48
2023-12-17T05:10:29.743Z,-0.45
2023-12-17T05:12:56.093Z,-0.32
2023-12-17T05:15:22.517Z,-0.29
2023-12-17T05:17:48.934Z,-0.16
2023-12-17T05:20:15.216Z,-0.09
2023-12-17T05:22:41.640Z,-0.07
2023-12-17T05:25:08.027Z,-0.04
2023-12-17T05:27:34.281Z,-0.04
2023-12-17T05:30:00.662Z,-0.02
2023-12-17T05:32:26.988Z,-0.04
2023-12-17T05:34:54.436Z,-0.09
2023-12-17T05:37:20.790Z,-0.11
2023-12-17T05:39:47.052Z,-0.15
2023-12-17T05:42:17.137Z,-0.19
2023-12-17T05:44:48.059Z,-0.28
2023-12-17T05:47:14.359Z,-0.35
2023-12-17T05:49:42.785Z,-0.41
2023-12-17T05:52:12.287Z,-0.48
2023-12-17T05:54:42.896Z,-0.51
2023-12-17T05:57:11.358Z,-0.47
2023-12-17T05:59:37.557Z,-0.44
2023-12-17T06:02:03.760Z,-0.34
2023-12-17T06:04:29.997Z,-0.34
2023-12-17T06:06:56.242Z,-0.32
2023-12-17T06:09:22.532Z,-0.32
2023-12-17T06:11:48.812Z,-0.36
2023-12-17T06:14:15.046Z,-0.39
2023-12-17T06:16:41.258Z,-0.39
2023-12-17T06:19:07.595Z,-0.37
2023-12-17T06:21:34.070Z,-0.34
2023-12-17T06:24:00.349Z,-0.26
2023-12-17T06:26:26.656Z,-0.20
2023-12-17T06:28:52.838Z,-0.18
2023-12-17T06:31:19.140Z,-0.18
2023-12-17T06:33:45.527Z,-0.14
2023-12-17T06:36:11.881Z,-0.11
2023-12-17T06:38:38.096Z,-0.10
2023-12-17T06:41:04.349Z,-0.11
2023-12-17T06:43:30.600Z,-0.06
2023-12-17T06:45:56.807Z,-0.02
2023-12-17T06:48:23.216Z,0.00
2023-12-17T06:50:49.762Z,-0.01
2023-12-17T06:53:15.991Z,-0.01
2023-12-17T06:55:42.659Z,-0.04
2023-12-17T06:58:08.875Z,-0.07
2023-12-17T07:00:35.195Z,-0.12
2023-12-17T07:03:01.657Z,-0.14
2023-12-17T07:05:28.012Z,-0.13
2023-12-17T07:07:54.222Z,-0.16
2023-12-17T07:10:20.453Z,-0.14
2023-12-17T07:12:46.686Z,-0.10
2023-12-17T07:15:12.912Z,-0.12
2023-12-17T07:17:39.480Z,-0.09
2023-12-17T07:20:06.055Z,-0.04
2023-12-17T07:22:32.256Z,-0.05
2023-12-17T07:24:58.464Z,0.01
2023-12-17T07:27:24.734Z,0.03
2023-12-17T07:29:50.993Z,0.07
2023-12-17T07:32:17.266Z,0.14
2023-12-17T07:34:43.638Z,0.20
2023-12-17T07:37:09.908Z,0.23
2023-12-17T07:39:36.147Z,0.32
2023-12-17T07:42:02.468Z,0.39
2023-12-17T07:44:28.728Z,0.47
2023-12-17T07:46:54.917Z,0.54
2023-12-17T07:49:21.271Z,0.61
2023-12-17T07:51:47.520Z,0.66
2023-12-17T07:54:13.742Z,0.76
2023-12-17T07:56:39.942Z,0.81
2023-12-17T07:59:06.158Z,0.90
2023-12-17T08:01:33.021Z,0.97
2023-12-17T08:03:59.507Z,1.01
2023-12-17T08:06:25.881Z,1.05
2023-12-17T08:08:52.191Z,1.07
2023-12-17T08:11:18.468Z,1.10
2023-12-17T08:13:44.755Z,1.17
2023-12-17T08:16:10.943Z,1.25
2023-12-17T08:18:37.206Z,1.31
2023-12-17T08:21:03.527Z,1.42
2023-12-17T08:23:29.756Z,1.47
2023-12-17T08:25:56.009Z,1.49
2023-12-17T08:28:22.246Z,1.58
2023-12-17T08:30:48.539Z,1.64
2023-12-17T08:33:15.045Z,1.70
2023-12-17T08:35:41.397Z,1.79
2023-12-17T08:38:07.669Z,1.86
2023-12-17T08:40:33.950Z,1.91
2023-12-17T08:43:00.158Z,1.96
2023-12-17T08:45:26.569Z,2.05
2023-12-17T08:47:52.916Z,2.09
2023-12-17T08:50:19.213Z,2.20
2023-12-17T08:52:45.463Z,2.24
2023-12-17T08:55:11.731Z,2.34
2023-12-17T08:57:38.011Z,2.42
2023-12-17T09:00:04.372Z,2.56
2023-12-17T09:02:30.608Z,2.64
2023-12-17T09:04:56.796Z,2.69
2023-12-17T09:07:23.090Z,2.80
2023-12-17T09:09:49.333Z,2.89
2023-12-17T09:12:15.603Z,2.99
2023-12-17T09:14:41.848Z,3.14
2023-12-17T09:17:08.100Z,3.68
2023-12-17T09:19:34.470Z,4.04
2023-12-17T09:22:00.809Z,4.23
2023-12-17T09:24:27.075Z,4.80
2023-12-17T09:26:53.338Z,5.43
2023-12-17T09:29:19.652Z,5.61
2023-12-17T09:31:45.920Z,5.74
2023-12-17T09:34:12.254Z,5.84
2023-12-17T09:36:38.586Z,6.01
2023-12-17T09:39:04.995Z,6.28
2023-12-17T09:41:31.207Z,6.32
2023-12-17T09:43:57.423Z,6.05
2023-12-17T09:46:23.590Z,6.13
2023-12-17T09:48:49.927Z,6.23
2023-12-17T09:51:16.192Z,6.24
2023-12-17T09:53:42.438Z,6.35
2023-12-17T09:56:08.662Z,6.47
2023-12-17T09:58:34.929Z,6.26
2023-12-17T10:01:01.303Z,6.43
2023-12-17T10:03:27.651Z,6.58
2023-12-17T10:05:54.202Z,6.71
2023-12-17T10:08:20.520Z,6.71
2023-12-17T10:10:52.748Z,6.50
2023-12-17T10:13:18.958Z,6.52
2023-12-17T10:15:45.228Z,6.28
2023-12-17T10:18:11.637Z,6.29
2023-12-17T10:20:37.868Z,6.06
2023-12-17T10:23:04.130Z,6.26
2023-12-17T10:25:30.588Z,6.39
2023-12-17T10:27:56.803Z,6.23
2023-12-17T10:30:23.184Z,6.43
2023-12-17T10:32:49.610Z,6.36
2023-12-17T10:35:15.954Z,6.29
2023-12-17T10:37:42.382Z,6.28
2023-12-17T10:40:08.679Z,6.61
2023-12-17T10:42:34.964Z,6.70
2023-12-17T10:45:01.258Z,7.36
2023-12-17T10:47:27.759Z,7.67
2023-12-17T10:49:54.158Z,8.39
2023-12-17T10:52:20.508Z,8.57
2023-12-17T10:54:46.692Z,8.17
2023-12-17T10:57:12.973Z,8.02
2023-12-17T10:59:41.362Z,8.49
2023-12-17T11:02:07.928Z,8.28
2023-12-17T11:04:34.129Z,9.38
2023-12-17T11:07:00.357Z,10.22
2023-12-17T11:09:26.625Z,10.91
2023-12-17T11:11:53.003Z,11.30
2023-12-17T11:14:19.251Z,11.68
2023-12-17T11:16:45.454Z,11.52
2023-12-17T11:19:11.754Z,11.56
2023-12-17T11:21:38.062Z,10.93
2023-12-17T11:24:04.322Z,10.30
2023-12-17T11:26:30.546Z,9.44
2023-12-17T11:28:56.737Z,8.62
2023-12-17T11:31:23.008Z,8.13
2023-12-17T11:33:49.399Z,7.83
2023-12-17T11:36:15.765Z,7.48
2023-12-17T11:38:42.368Z,7.19
2023-12-17T11:41:08.616Z,7.02
2023-12-17T11:43:34.867Z,6.93
2023-12-17T11:46:01.059Z,6.95
2023-12-17T11:48:27.435Z,7.01
2023-12-17T11:50:53.943Z,6.87
2023-12-17T11:53:20.391Z,7.00
2023-12-17T11:55:46.583Z,6.84
2023-12-17T11:58:12.846Z,6.88
2023-12-17T12:00:39.291Z,6.92
2023-12-17T12:03:05.681Z,6.82
2023-12-17T12:05:32.062Z,6.89
2023-12-17T12:07:58.314Z,6.82
2023-12-17T12:10:24.572Z,6.91
2023-12-17T12:12:50.821Z,6.85
2023-12-17T12:15:17.054Z,6.79
2023-12-17T12:17:43.941Z,6.83
2023-12-17T12:20:10.746Z,6.80
2023-12-17T12:22:37.029Z,6.68
2023-12-17T12:25:03.238Z,6.71
2023-12-17T12:27:29.602Z,6.73
2023-12-17T12:29:55.816Z,6.71
2023-12-17T12:32:22.015Z,6.63
2023-12-17T12:34:48.396Z,6.59
2023-12-17T12:37:14.690Z,6.62
2023-12-17T12:39:50.028Z,6.58
2023-12-17T12:42:25.848Z,6.63
2023-12-17T12:44:52.140Z,6.65
2023-12-17T12:47:18.423Z,6.72
2023-12-17T12:49:44.758Z,6.64
2023-12-17T12:52:11.135Z,6.65
2023-12-17T12:54:37.830Z,6.65
2023-12-17T12:57:04.212Z,6.67
2023-12-17T12:59:30.521Z,6.67
2023-12-17T13:01:56.762Z,6.78
2023-12-17T13:04:23.177Z,6.75
2023-12-17T13:06:49.607Z,6.79
2023-12-17T13:09:17.722Z,6.70
2023-12-17T13:11:45.565Z,6.74
2023-12-17T13:14:11.777Z,6.73
2023-12-17T13:16:38.004Z,6.70
2023-12-17T13:19:08.718Z,6.70
2023-12-17T13:21:40.808Z,6.73
2023-12-17T13:24:07.163Z,6.72
2023-12-17T13:26:33.395Z,6.78
2023-12-17T13:28:59.605Z,6.77
2023-12-17T13:31:25.891Z,6.77
2023-12-17T13:33:52.134Z,6.83
2023-12-17T13:36:18.449Z,6.86
2023-12-17T13:38:44.695Z,6.83
2023-12-17T13:41:10.949Z,6.87
2023-12-17T13:43:37.248Z,6.85
2023-12-17T13:46:03.470Z,6.83
2023-12-17T13:48:33.720Z,6.81
2023-12-17T13:51:00.936Z,6.90
2023-12-17T13:53:27.163Z,6.85
2023-12-17T13:55:53.440Z,6.83
2023-12-17T13:58:19.684Z,6.83
2023-12-17T14:00:46.036Z,6.89
2023-12-17T14:03:12.347Z,6.89
2023-12-17T14:05:38.655Z,6.94
2023-12-17T14:08:04.871Z,6.93
2023-12-17T14:10:31.131Z,6.92
2023-12-17T14:12:57.384Z,6.87
2023-12-17T14:15:23.629Z,6.84
2023-12-17T14:17:49.911Z,6.79
2023-12-17T14:20:20.628Z,6.79
2023-12-17T14:22:51.516Z,6.72
2023-12-17T14:25:17.727Z,6.65
2023-12-17T14:27:44.332Z,6.65
2023-12-17T14:30:10.898Z,6.63
2023-12-17T14:32:37.277Z,6.64
2023-12-17T14:35:03.524Z,6.57
2023-12-17T14:37:29.717Z,6.58
2023-12-17T14:39:55.966Z,6.59
2023-12-17T14:42:22.199Z,6.50
2023-12-17T14:44:51.912Z,6.42
2023-12-17T14:47:18.125Z,6.39
2023-12-17T14:49:44.432Z,6.35
2023-12-17T14:52:10.690Z,6.27
2023-12-17T14:54:36.936Z,6.17
2023-12-17T14:57:03.461Z,6.12
2023-12-17T14:59:29.839Z,6.06
2023-12-17T15:01:56.182Z,5.97
2023-12-17T15:04:22.447Z,5.81
2023-12-17T15:06:48.707Z,5.63
2023-12-17T15:09:14.996Z,5.50
2023-12-17T15:11:41.207Z,5.37
2023-12-17T15:14:07.451Z,5.30
2023-12-17T15:16:33.755Z,5.14
2023-12-17T15:19:00.043Z,5.01
2023-12-17T15:21:26.498Z,4.87
2023-12-17T15:23:52.894Z,4.76
2023-12-17T15:26:22.120Z,4.64
2023-12-17T15:28:48.320Z,4.53
2023-12-17T15:31:14.655Z,4.51
2023-12-17T15:33:41.134Z,4.44
2023-12-17T15:36:07.550Z,4.29
2023-12-17T15:38:33.763Z,4.17
2023-12-17T15:40:59.970Z,4.00
2023-12-17T15:43:26.268Z,3.84
2023-12-17T15:45:52.478Z,3.72
2023-12-17T15:48:18.751Z,3.64
2023-12-17T15:50:45.380Z,3.64
2023-12-17T15:53:11.659Z,3.75
2023-12-17T15:55:37.922Z,3.72
2023-12-17T15:58:04.168Z,3.70
2023-12-17T16:00:30.491Z,3.61
2023-12-17T16:02:56.926Z,3.60
2023-12-17T16:05:23.278Z,3.51
2023-12-17T16:07:49.557Z,3.46
2023-12-17T16:10:15.873Z,3.37
2023-12-17T16:12:42.345Z,3.31
2023-12-17T16:15:08.748Z,3.22
2023-12-17T16:17:35.129Z,3.14
2023-12-17T16:20:01.443Z,3.06
2023-12-17T16:22:27.687Z,3.01
2023-12-17T16:24:53.946Z,2.94
2023-12-17T16:27:20.245Z,2.89
2023-12-17T16:29:46.502Z,2.82
2023-12-17T16:32:12.717Z,2.75
2023-12-17T16:34:39.046Z,2.71
2023-12-17T16:37:05.379Z,2.66
2023-12-17T16:39:31.815Z,2.64
2023-12-17T16:41:58.163Z,2.59
2023-12-17T16:47:16.258Z,2.57
2023-12-17T16:49:42.612Z,2.53
2023-12-17T16:52:08.944Z,2.56
2023-12-17T16:54:35.240Z,2.55
2023-12-17T16:57:01.514Z,2.47
2023-12-17T16:59:27.780Z,2.40
2023-12-17T17:01:54.128Z,2.38
2023-12-17T17:04:20.383Z,2.36
2023-12-17T17:06:46.697Z,2.56
2023-12-17T17:09:12.986Z,2.52
2023-12-17T17:11:39.715Z,2.53
2023-12-17T17:14:06.008Z,2.50
2023-12-17T17:16:32.227Z,2.39
2023-12-17T17:18:59.201Z,2.34
2023-12-17T17:21:25.510Z,2.35
2023-12-17T17:23:51.779Z,2.33
2023-12-17T17:26:18.017Z,2.28
2023-12-17T17:28:44.281Z,2.24
2023-12-17T17:31:10.630Z,2.25
2023-12-17T17:33:37.047Z,2.23
2023-12-17T17:36:03.472Z,2.15
2023-12-17T17:38:29.840Z,2.08
2023-12-17T17:40:56.036Z,1.98
2023-12-17T17:43:22.276Z,1.89
2023-12-17T17:45:48.505Z,1.87
2023-12-17T17:48:14.937Z,1.92
2023-12-17T17:50:41.215Z,1.99
2023-12-17T17:53:07.413Z,2.06
2023-12-17T17:55:33.701Z,2.02
2023-12-17T17:58:00.010Z,1.97
2023-12-17T18:00:26.621Z,1.88
2023-12-17T18:02:52.887Z,1.79
2023-12-17T18:05:19.182Z,1.68
2023-12-17T18:07:45.452Z,1.60
2023-12-17T18:10:11.658Z,1.55
2023-12-17T18:12:38.146Z,1.51
2023-12-17T18:15:04.533Z,1.43
2023-12-17T18:17:30.862Z,1.34
2023-12-17T18:19:57.139Z,1.23
2023-12-17T18:22:23.356Z,1.15
2023-12-17T18:24:49.547Z,1.09
2023-12-17T18:27:15.782Z,1.05
2023-12-17T18:29:42.044Z,1.09
2023-12-17T18:32:08.241Z,1.11
2023-12-17T18:34:34.669Z,1.12
2023-12-17T18:37:00.999Z,1.12
2023-12-17T18:39:27.288Z,1.16
2023-12-17T18:41:53.503Z,1.18
2023-12-17T18:44:19.735Z,1.25
2023-12-17T18:46:45.970Z,1.30
2023-12-17T18:49:12.355Z,1.33
2023-12-17T18:51:38.745Z,1.42
2023-12-17T18:54:05.111Z,1.37
2023-12-17T18:56:31.474Z,1.40
2023-12-17T18:58:57.724Z,1.39
2023-12-17T19:01:23.971Z,1.39
2023-12-17T19:03:50.399Z,1.38
2023-12-17T19:06:19.798Z,1.40
2023-12-17T19:08:45.992Z,1.41
2023-12-17T19:11:12.250Z,1.43
2023-12-17T19:13:38.528Z,1.40
2023-12-17T19:16:04.723Z,1.45
2023-12-17T19:18:31.123Z,1.46
2023-12-17T19:20:57.369Z,1.46
2023-12-17T19:23:23.625Z,1.45
2023-12-17T19:25:49.860Z,1.52
2023-12-17T19:28:16.114Z,1.51
2023-12-17T19:30:42.459Z,1.51
2023-12-17T19:33:11.720Z,1.48
2023-12-17T19:35:39.025Z,1.50
2023-12-17T19:38:05.228Z,1.53
2023-12-17T19:40:31.484Z,1.53
2023-12-17T19:42:57.702Z,1.53
2023-12-17T19:45:24.034Z,1.51
2023-12-17T19:47:50.613Z,1.56
2023-12-17T19:50:16.876Z,1.55
2023-12-17T19:52:43.422Z,1.49
2023-12-17T19:55:09.944Z,1.47
2023-12-17T19:57:36.407Z,1.50
2023-12-17T20:00:02.733Z,1.47
2023-12-17T20:02:28.977Z,1.46
2023-12-17T20:04:55.204Z,1.45
2023-12-17T20:07:21.616Z,1.43
2023-12-17T20:09:48.159Z,1.38
2023-12-17T20:12:14.542Z,1.32
2023-12-17T20:14:40.836Z,1.33
2023-12-17T20:17:07.138Z,1.28
2023-12-17T20:19:33.550Z,1.25
2023-12-17T20:21:59.962Z,1.27
2023-12-17T20:24:26.241Z,1.30
2023-12-17T20:26:52.585Z,1.30
2023-12-17T20:29:18.889Z,1.32
2023-12-17T20:31:45.295Z,1.30
2023-12-17T20:34:11.803Z,1.35
2023-12-17T20:36:38.127Z,1.33
2023-12-17T20:39:04.474Z,1.31
2023-12-17T20:41:30.688Z,1.31
2023-12-17T20:43:56.945Z,1.27
2023-12-17T20:46:23.194Z,1.27
2023-12-17T20:48:49.678Z,1.33
2023-12-17T20:51:16.111Z,1.31
2023-12-17T20:53:42.381Z,1.33
2023-12-17T20:56:08.635Z,1.33
2023-12-17T20:58:34.881Z,1.30
2023-12-17T21:01:01.221Z,1.31
2023-12-17T21:03:27.584Z,1.33
2023-12-17T21:05:54.002Z,1.33
2023-12-17T21:08:20.298Z,1.34
2023-12-17T21:10:46.578Z,1.33
2023-12-17T21:13:12.801Z,1.33
2023-12-17T21:15:39.166Z,1.35
2023-12-17T21:18:05.602Z,1.34
2023-12-17T21:20:31.976Z,1.33
2023-12-17T21:22:58.192Z,1.35
2023-12-17T21:25:24.451Z,1.33
2023-12-17T21:27:50.774Z,1.36
2023-12-17T21:30:17.180Z,1.35
2023-12-17T21:32:43.852Z,1.33
2023-12-17T21:35:10.481Z,1.35
2023-12-17T21:37:36.775Z,1.40
2023-12-17T21:40:03.063Z,1.42
2023-12-17T21:42:29.434Z,1.40
2023-12-17T21:44:55.651Z,1.39
2023-12-17T21:47:21.939Z,1.42
2023-12-17T21:49:48.259Z,1.40
2023-12-17T21:52:24.594Z,1.43
2023-12-17T21:54:58.091Z,1.50
2023-12-17T21:57:24.410Z,1.48
2023-12-17T21:59:50.671Z,1.50
2023-12-17T22:02:17.115Z,1.49
2023-12-17T22:04:43.332Z,1.53
2023-12-17T22:07:09.644Z,1.52
2023-12-17T22:09:36.243Z,1.49
2023-12-17T22:12:02.533Z,1.52
2023-12-17T22:14:28.804Z,1.52
2023-12-17T22:16:55.030Z,1.55
2023-12-17T22:19:21.446Z,1.53
2023-12-17T22:21:47.769Z,1.59
2023-12-17T22:24:14.003Z,1.59
2023-12-17T22:26:40.253Z,1.56
2023-12-17T22:29:06.501Z,1.53
2023-12-17T22:31:32.960Z,1.57
2023-12-17T22:33:59.344Z,1.56
2023-12-17T22:36:25.676Z,1.58
2023-12-17T22:38:51.924Z,1.59
2023-12-17T22:41:18.116Z,1.59
2023-12-17T22:43:44.349Z,1.57
2023-12-17T22:46:10.623Z,1.59
2023-12-17T22:48:36.956Z,1.60
2023-12-17T22:51:03.218Z,1.59
2023-12-17T22:53:29.461Z,1.65
2023-12-17T22:55:55.648Z,1.59
2023-12-17T22:58:22.062Z,1.61
2023-12-17T23:00:48.321Z,1.63
2023-12-17T23:03:14.624Z,1.59
2023-12-17T23:05:40.941Z,1.58
2023-12-17T23:08:07.165Z,1.59
2023-12-17T23:10:33.357Z,1.59
2023-12-17T23:12:59.601Z,1.65
2023-12-17T23:15:25.831Z,1.62
2023-12-17T23:17:52.143Z,1.61
2023-12-17T23:20:18.377Z,1.61
2023-12-17T23:22:44.583Z,1.59
2023-12-17T23:25:10.796Z,1.59
2023-12-17T23:27:37.076Z,1.59
2023-12-17T23:30:03.379Z,1.58
2023-12-17T23:32:30.779Z,1.64
2023-12-17T23:34:57.275Z,1.63
2023-12-17T23:37:23.522Z,1.62
2023-12-17T23:39:49.704Z,1.62
2023-12-17T23:42:15.978Z,1.64
2023-12-17T23:44:42.218Z,1.70
2023-12-17T23:47:08.428Z,1.73
2023-12-17T23:49:34.740Z,1.68
2023-12-17T23:52:01.026Z,1.69
2023-12-17T23:54:27.254Z,1.70
2023-12-17T23:56:53.517Z,1.70
2023-12-17T23:59:19.712Z,1.71
